Time;durP1;ratioP1;P1;durP2;ratioP2;P2;SDS_P1;SDS_P2;PMS_P1;PMS_P2;Temp;Humidity;BMP_temperature;BMP_pressure;BME280_temperature;BME280_humidity;BME280_pressure;Samples;Min_cycle;Max_cycle;Signal;HPM_P1;HPM_P2
2021/03/01 00:01:47;;;;;;;33.38;22.55;;;;;;;;;;5029468;28;20033;-69
2021/03/01 00:04:13;;;;;;;38.03;19.15;;;;;;;;;;5028024;28;20026;-68
2021/03/01 00:06:39;;;;;;;32.33;21.65;;;;;;;;;;5027161;28;20148;-68
2021/03/01 00:09:05;;;;;;;36.22;22.23;;;;;;;;;;5031867;28;20038;-69
2021/03/01 00:11:32;;;;;;;34.55;22.38;;;;;;;;;;5034152;28;20047;-69
2021/03/01 00:13:59;;;;;;;34.60;23.02;;;;;;;;;;5030782;28;20111;-69
2021/03/01 00:16:25;;;;;;;33.42;22.02;;;;;;;;;;5031283;28;20025;-69
2021/03/01 00:18:51;;;;;;;36.13;24.38;;;;;;;;;;5018770;28;21077;-68
2021/03/01 00:21:17;;;;;;;33.90;23.35;;;;;;;;;;5021837;28;20033;-69
2021/03/01 00:23:43;;;;;;;36.25;23.70;;;;;;;;;;5026732;28;20055;-69
2021/03/01 00:26:10;;;;;;;37.15;24.30;;;;;;;;;;5022332;28;20058;-69
2021/03/01 00:28:36;;;;;;;35.65;22.83;;;;;;;;;;5015322;28;20034;-69
2021/03/01 00:31:02;;;;;;;32.20;22.40;;;;;;;;;;5031904;28;20088;-68
2021/03/01 00:33:28;;;;;;;38.70;23.17;;;;;;;;;;5031542;28;20731;-68
2021/03/01 00:35:54;;;;;;;36.20;23.60;;;;;;;;;;5027743;28;20029;-68
2021/03/01 00:38:20;;;;;;;34.35;20.88;;;;;;;;;;5029977;28;20488;-68
2021/03/01 00:40:46;;;;;;;36.95;25.27;;;;;;;;;;5031234;28;20104;-69
2021/03/01 00:43:12;;;;;;;37.42;24.42;;;;;;;;;;5021391;28;20250;-69
2021/03/01 00:45:38;;;;;;;33.85;20.77;;;;;;;;;;5029085;28;20040;-68
2021/03/01 00:48:04;;;;;;;36.92;21.50;;;;;;;;;;5029127;28;20029;-69
2021/03/01 00:50:30;;;;;;;37.03;23.27;;;;;;;;;;5025462;28;20041;-68
2021/03/01 00:52:56;;;;;;;39.00;24.05;;;;;;;;;;5030764;28;20108;-69
2021/03/01 00:55:22;;;;;;;38.85;22.85;;;;;;;;;;5049260;28;20033;-68
2021/03/01 00:57:48;;;;;;;34.08;24.02;;;;;;;;;;5038018;28;20036;-69
2021/03/01 01:00:15;;;;;;;38.92;24.25;;;;;;;;;;5031080;28;20029;-69
2021/03/01 01:02:42;;;;;;;34.25;23.10;;;;;;;;;;5026374;28;20116;-69
2021/03/01 01:05:08;;;;;;;36.53;27.67;;;;;;;;;;5021429;28;20034;-69
2021/03/01 01:07:34;;;;;;;37.05;21.67;;;;;;;;;;5027821;28;20084;-69
2021/03/01 01:10:01;;;;;;;37.70;23.70;;;;;;;;;;5028590;28;20128;-69
2021/03/01 01:12:27;;;;;;;35.38;24.20;;;;;;;;;;5039402;28;20316;-69
2021/03/01 01:14:53;;;;;;;35.58;24.02;;;;;;;;;;5027688;28;20026;-69
2021/03/01 01:17:19;;;;;;;42.28;26.63;;;;;;;;;;5028194;28;20033;-69
2021/03/01 01:19:45;;;;;;;38.55;22.10;;;;;;;;;;5023837;28;20022;-69
2021/03/01 01:22:11;;;;;;;36.58;23.30;;;;;;;;;;5028442;28;20124;-69
2021/03/01 01:24:37;;;;;;;42.75;26.63;;;;;;;;;;5027264;28;20053;-68
2021/03/01 01:27:03;;;;;;;35.30;24.80;;;;;;;;;;5031101;28;20030;-69
2021/03/01 01:29:29;;;;;;;41.00;26.15;;;;;;;;;;5027158;28;20030;-69
2021/03/01 01:31:55;;;;;;;35.95;22.88;;;;;;;;;;5030347;28;20033;-69
2021/03/01 01:34:21;;;;;;;41.72;25.17;;;;;;;;;;5025938;28;20076;-69
2021/03/01 01:36:47;;;;;;;35.60;22.90;;;;;;;;;;5023273;28;20028;-69
2021/03/01 01:39:13;;;;;;;44.92;24.45;;;;;;;;;;5020572;28;20026;-69
2021/03/01 01:41:39;;;;;;;39.88;27.13;;;;;;;;;;5026858;28;20040;-69
2021/03/01 01:44:05;;;;;;;44.20;28.00;;;;;;;;;;5029809;28;20036;-69
2021/03/01 01:46:32;;;;;;;38.53;25.83;;;;;;;;;;5023656;28;20030;-69
2021/03/01 01:48:58;;;;;;;38.88;23.15;;;;;;;;;;5031802;28;20387;-69
2021/03/01 01:51:24;;;;;;;42.42;25.65;;;;;;;;;;5034212;28;20550;-68
2021/03/01 01:53:50;;;;;;;40.78;26.08;;;;;;;;;;5019056;28;20021;-69
2021/03/01 01:56:16;;;;;;;42.53;26.20;;;;;;;;;;5024827;28;20075;-69
2021/03/01 01:58:42;;;;;;;45.88;26.70;;;;;;;;;;5029247;28;20247;-69
2021/03/01 02:01:08;;;;;;;43.40;26.33;;;;;;;;;;5027069;28;20025;-69
2021/03/01 02:03:46;;;;;;;45.58;26.45;;;;;;;;;;5027330;28;20037;-69
2021/03/01 02:06:28;;;;;;;42.15;26.42;;;;;;;;;;5029679;28;20021;-68
2021/03/01 02:09:03;;;;;;;46.13;28.70;;;;;;;;;;5016810;28;20052;-69
2021/03/01 02:11:34;;;;;;;45.08;27.90;;;;;;;;;;5014132;28;20018;-69
2021/03/01 02:14:12;;;;;;;45.60;29.50;;;;;;;;;;5027170;28;20075;-68
2021/03/01 02:16:39;;;;;;;45.00;29.40;;;;;;;;;;5044984;28;20052;-69
2021/03/01 02:19:05;;;;;;;45.15;29.17;;;;;;;;;;5032076;28;20427;-69
2021/03/01 02:21:32;;;;;;;47.42;29.13;;;;;;;;;;5039036;28;20063;-69
2021/03/01 02:23:58;;;;;;;43.28;28.05;;;;;;;;;;5037938;28;20033;-69
2021/03/01 02:26:26;;;;;;;41.55;24.40;;;;;;;;;;5032810;28;20403;-69
2021/03/01 02:28:54;;;;;;;45.60;27.95;;;;;;;;;;5022455;28;20029;-68
2021/03/01 02:31:21;;;;;;;46.42;27.17;;;;;;;;;;5028895;28;20103;-69
2021/03/01 02:33:49;;;;;;;42.97;25.15;;;;;;;;;;5017658;28;20282;-69
2021/03/01 02:36:21;;;;;;;41.22;27.63;;;;;;;;;;5029650;28;20112;-69
2021/03/01 02:38:48;;;;;;;46.65;26.92;;;;;;;;;;5019825;28;20029;-69
2021/03/01 02:41:14;;;;;;;46.35;25.77;;;;;;;;;;5020994;28;20049;-69
2021/03/01 02:43:41;;;;;;;42.03;27.10;;;;;;;;;;5027776;28;20026;-69
2021/03/01 02:46:09;;;;;;;50.28;27.05;;;;;;;;;;5041411;28;20106;-69
2021/03/01 02:48:36;;;;;;;46.63;27.27;;;;;;;;;;5022727;28;20025;-69
2021/03/01 02:51:03;;;;;;;50.88;26.30;;;;;;;;;;5030052;28;20037;-69
2021/03/01 02:53:29;;;;;;;46.97;27.20;;;;;;;;;;5025846;28;20033;-69
2021/03/01 02:55:56;;;;;;;42.03;25.67;;;;;;;;;;5016646;28;20037;-69
2021/03/01 02:58:23;;;;;;;47.40;29.58;;;;;;;;;;5028600;28;20055;-69
2021/03/01 03:00:50;;;;;;;49.50;31.42;;;;;;;;;;5032390;28;20030;-69
2021/03/01 03:03:16;;;;;;;46.40;28.33;;;;;;;;;;5025215;28;20030;-69
2021/03/01 03:05:44;;;;;;;47.95;27.67;;;;;;;;;;5028916;28;20045;-69
2021/03/01 03:08:11;;;;;;;46.42;29.17;;;;;;;;;;5027265;28;20041;-69
2021/03/01 03:10:39;;;;;;;45.50;27.15;;;;;;;;;;5028823;28;20040;-69
2021/03/01 03:13:05;;;;;;;46.58;25.95;;;;;;;;;;5025768;28;20483;-69
2021/03/01 03:15:32;;;;;;;44.50;27.95;;;;;;;;;;5029335;28;20029;-69
2021/03/01 03:17:59;;;;;;;50.85;29.35;;;;;;;;;;5032948;28;20104;-69
2021/03/01 03:20:25;;;;;;;44.00;27.58;;;;;;;;;;5017568;28;20033;-69
2021/03/01 03:22:51;;;;;;;51.67;30.08;;;;;;;;;;5025519;28;20064;-69
2021/03/01 03:25:18;;;;;;;45.78;29.63;;;;;;;;;;5039864;28;20033;-69
2021/03/01 03:27:44;;;;;;;46.58;28.48;;;;;;;;;;5032098;28;20089;-69
2021/03/01 03:30:11;;;;;;;46.70;30.02;;;;;;;;;;5024689;28;20029;-69
2021/03/01 03:32:38;;;;;;;53.70;31.48;;;;;;;;;;5048890;28;20029;-69
2021/03/01 03:35:08;;;;;;;51.42;31.60;;;;;;;;;;5036265;28;20083;-69
2021/03/01 03:37:40;;;;;;;55.45;33.58;;;;;;;;;;5028964;28;20117;-68
2021/03/01 03:40:07;;;;;;;57.67;34.05;;;;;;;;;;5027998;28;20022;-69
2021/03/01 03:42:34;;;;;;;55.60;32.30;;;;;;;;;;5015206;28;20034;-68
2021/03/01 03:45:01;;;;;;;59.40;35.03;;;;;;;;;;5025195;28;20032;-69
2021/03/01 03:47:28;;;;;;;57.63;34.88;;;;;;;;;;5038101;28;20728;-69
2021/03/01 03:49:55;;;;;;;59.08;34.20;;;;;;;;;;5025653;28;20038;-68
2021/03/01 03:52:26;;;;;;;61.40;37.33;;;;;;;;;;5027570;28;20041;-68
2021/03/01 03:54:52;;;;;;;57.50;33.97;;;;;;;;;;5024501;28;20482;-69
2021/03/01 03:57:26;;;;;;;66.68;38.95;;;;;;;;;;5024592;28;20040;-69
2021/03/01 03:59:54;;;;;;;58.20;35.92;;;;;;;;;;5022605;28;20041;-69
2021/03/01 04:02:22;;;;;;;60.88;35.53;;;;;;;;;;5026534;28;20029;-69
2021/03/01 04:04:49;;;;;;;64.90;39.10;;;;;;;;;;5034816;28;20095;-69
2021/03/01 04:07:17;;;;;;;68.82;40.97;;;;;;;;;;5025654;28;20411;-69
2021/03/01 04:09:44;;;;;;;60.25;38.65;;;;;;;;;;5025816;28;20076;-68
2021/03/01 04:12:11;;;;;;;72.13;41.33;;;;;;;;;;5042482;28;20380;-69
2021/03/01 04:14:38;;;;;;;71.55;43.40;;;;;;;;;;5032760;28;20044;-68
2021/03/01 04:17:05;;;;;;;75.18;43.28;;;;;;;;;;5017685;28;20087;-69
2021/03/01 04:19:33;;;;;;;90.20;52.30;;;;;;;;;;5039203;28;20021;-68
2021/03/01 04:22:00;;;;;;;84.55;45.35;;;;;;;;;;5032043;28;20058;-68
2021/03/01 04:24:28;;;;;;;101.07;61.17;;;;;;;;;;5034641;28;20037;-69
2021/03/01 04:26:55;;;;;;;106.07;50.95;;;;;;;;;;5025903;28;20025;-68
2021/03/01 04:29:24;;;;;;;124.15;59.70;;;;;;;;;;5021544;28;20021;-69
2021/03/01 04:31:50;;;;;;;153.70;71.18;;;;;;;;;;5031826;28;20491;-68
2021/03/01 04:34:17;;;;;;;145.30;62.55;;;;;;;;;;5036844;28;20036;-68
2021/03/01 04:36:43;;;;;;;172.02;71.15;;;;;;;;;;5029260;28;20029;-68
2021/03/01 04:39:10;;;;;;;182.13;72.22;;;;;;;;;;5031186;28;20021;-68
2021/03/01 04:41:36;;;;;;;239.95;94.30;;;;;;;;;;5036810;28;20026;-69
2021/03/01 04:44:06;;;;;;;178.45;66.32;;;;;;;;;;5032707;28;20029;-68
2021/03/01 04:46:33;;;;;;;178.18;66.22;;;;;;;;;;5025755;28;20046;-68
2021/03/01 04:49:01;;;;;;;229.07;86.13;;;;;;;;;;5019754;28;20048;-68
2021/03/01 04:51:28;;;;;;;231.15;86.25;;;;;;;;;;5048603;28;20032;-69
2021/03/01 04:53:54;;;;;;;219.75;75.50;;;;;;;;;;5025583;28;20022;-68
2021/03/01 04:56:21;;;;;;;239.98;85.15;;;;;;;;;;5027922;28;20033;-69
2021/03/01 04:58:48;;;;;;;262.90;106.70;;;;;;;;;;5033107;28;20053;-69
2021/03/01 05:01:15;;;;;;;234.60;83.45;;;;;;;;;;5032898;28;20029;-68
2021/03/01 05:03:41;;;;;;;261.90;100.13;;;;;;;;;;5031288;28;20033;-68
2021/03/01 05:06:07;;;;;;;226.20;77.15;;;;;;;;;;5026055;28;20043;-68
2021/03/01 05:08:33;;;;;;;274.08;84.85;;;;;;;;;;5035725;28;20149;-68
2021/03/01 05:11:00;;;;;;;265.00;83.20;;;;;;;;;;5032387;28;20079;-68
2021/03/01 05:13:26;;;;;;;274.63;83.32;;;;;;;;;;5036440;28;20026;-68
2021/03/01 05:15:52;;;;;;;333.13;93.72;;;;;;;;;;5039094;28;20053;-68
2021/03/01 05:18:19;;;;;;;295.08;82.85;;;;;;;;;;5034172;28;20033;-68
2021/03/01 05:20:45;;;;;;;322.20;104.40;;;;;;;;;;5031254;28;20026;-68
2021/03/01 05:23:11;;;;;;;358.42;98.03;;;;;;;;;;5029182;28;20080;-68
2021/03/01 05:25:37;;;;;;;353.60;97.65;;;;;;;;;;5029438;28;20044;-68
2021/03/01 05:28:03;;;;;;;378.48;104.45;;;;;;;;;;5027849;28;20412;-67
2021/03/01 05:30:29;;;;;;;377.52;99.55;;;;;;;;;;5025582;28;20613;-68
2021/03/01 05:32:55;;;;;;;377.67;93.65;;;;;;;;;;5029272;28;20026;-68
2021/03/01 05:35:21;;;;;;;383.88;103.60;;;;;;;;;;5030278;28;20113;-68
2021/03/01 05:37:47;;;;;;;439.92;103.57;;;;;;;;;;5030722;28;20045;-68
2021/03/01 05:40:14;;;;;;;475.95;122.13;;;;;;;;;;5029778;28;20033;-67
2021/03/01 05:42:41;;;;;;;357.55;90.45;;;;;;;;;;5029761;28;20549;-68
2021/03/01 05:45:08;;;;;;;511.92;132.68;;;;;;;;;;5030026;28;20033;-68
2021/03/01 05:47:39;;;;;;;324.10;93.70;;;;;;;;;;5028197;28;20025;-68
2021/03/01 05:50:06;;;;;;;407.48;108.30;;;;;;;;;;5023301;28;20028;-67
2021/03/01 05:52:33;;;;;;;390.45;98.03;;;;;;;;;;5026975;28;20036;-68
2021/03/01 05:55:00;;;;;;;475.60;114.30;;;;;;;;;;5029822;28;20052;-67
2021/03/01 05:57:26;;;;;;;530.97;112.75;;;;;;;;;;5021140;28;20045;-67
2021/03/01 05:59:53;;;;;;;578.85;129.15;;;;;;;;;;5025378;28;20526;-68
2021/03/01 06:02:19;;;;;;;527.45;126.03;;;;;;;;;;5018031;28;20026;-68
2021/03/01 06:04:45;;;;;;;497.58;117.20;;;;;;;;;;5015848;28;20129;-68
2021/03/01 06:07:12;;;;;;;478.20;97.97;;;;;;;;;;5025760;28;20033;-67
2021/03/01 06:09:39;;;;;;;500.20;105.72;;;;;;;;;;5027778;28;20045;-67
2021/03/01 06:12:05;;;;;;;553.63;123.15;;;;;;;;;;5022577;28;20037;-68
2021/03/01 06:14:32;;;;;;;466.80;96.10;;;;;;;;;;5019048;28;20049;-67
2021/03/01 06:17:16;;;;;;;352.42;77.72;;;;;;;;;;5024251;28;20021;-68
2021/03/01 06:19:54;;;;;;;459.45;97.95;;;;;;;;;;5017850;28;20699;-68
2021/03/01 06:22:25;;;;;;;573.53;113.43;;;;;;;;;;5023310;28;20079;-67
2021/03/01 06:25:06;;;;;;;525.25;106.47;;;;;;;;;;5026871;28;20017;-68
2021/03/01 06:27:44;;;;;;;560.28;126.00;;;;;;;;;;5026487;28;20045;-67
2021/03/01 06:30:11;;;;;;;428.17;90.70;;;;;;;;;;5012445;28;20048;-67
2021/03/01 06:32:37;;;;;;;504.92;108.00;;;;;;;;;;5022473;28;20026;-68
2021/03/01 06:35:04;;;;;;;371.67;81.20;;;;;;;;;;5026477;28;20148;-68
2021/03/01 06:37:30;;;;;;;302.27;75.78;;;;;;;;;;5015638;28;20049;-68
2021/03/01 06:39:57;;;;;;;448.42;94.75;;;;;;;;;;5041523;28;20017;-68
2021/03/01 06:42:24;;;;;;;417.48;86.25;;;;;;;;;;5023170;28;20033;-68
2021/03/01 06:44:56;;;;;;;548.83;113.07;;;;;;;;;;5030269;28;20108;-67
2021/03/01 06:47:41;;;;;;;330.10;75.95;;;;;;;;;;5027579;28;20049;-67
2021/03/01 06:50:08;;;;;;;405.52;90.40;;;;;;;;;;5026281;28;20040;-68
2021/03/01 06:52:37;;;;;;;380.88;90.72;;;;;;;;;;5028377;28;20055;-67
2021/03/01 06:55:13;;;;;;;409.25;86.15;;;;;;;;;;5022780;28;20426;-67
2021/03/01 06:57:39;;;;;;;434.95;94.20;;;;;;;;;;5030265;28;20026;-68
2021/03/01 07:00:06;;;;;;;336.48;80.82;;;;;;;;;;5024702;28;20047;-67
2021/03/01 07:02:39;;;;;;;364.63;82.78;;;;;;;;;;5029961;28;20041;-68
2021/03/01 07:05:05;;;;;;;492.83;111.28;;;;;;;;;;5030174;28;20024;-68
2021/03/01 07:07:35;;;;;;;407.27;96.35;;;;;;;;;;5029801;28;20029;-68
2021/03/01 07:10:01;;;;;;;349.85;80.03;;;;;;;;;;5026674;28;20068;-68
2021/03/01 07:12:40;;;;;;;374.50;93.50;;;;;;;;;;5028424;28;20598;-68
2021/03/01 07:15:10;;;;;;;416.27;99.00;;;;;;;;;;5030514;28;20009;-67
2021/03/01 07:17:40;;;;;;;457.17;98.97;;;;;;;;;;5028070;28;20025;-67
2021/03/01 07:20:07;;;;;;;394.08;85.70;;;;;;;;;;5024107;28;20033;-68
2021/03/01 07:22:34;;;;;;;375.65;83.65;;;;;;;;;;5029293;28;20038;-67
2021/03/01 07:25:01;;;;;;;281.25;62.97;;;;;;;;;;5021430;28;20026;-68
2021/03/01 07:27:28;;;;;;;397.80;97.22;;;;;;;;;;5033742;28;20565;-67
2021/03/01 07:29:57;;;;;;;488.42;113.30;;;;;;;;;;5027502;28;20025;-67
2021/03/01 07:32:26;;;;;;;426.52;97.28;;;;;;;;;;5029066;28;20320;-67
2021/03/01 07:34:52;;;;;;;427.85;87.45;;;;;;;;;;5028277;28;20070;-67
2021/03/01 07:37:19;;;;;;;426.95;89.47;;;;;;;;;;5027168;28;20036;-67
2021/03/01 07:39:45;;;;;;;459.60;86.32;;;;;;;;;;5031420;28;20018;-67
2021/03/01 07:42:12;;;;;;;398.33;85.38;;;;;;;;;;5019354;28;20021;-67
2021/03/01 07:44:39;;;;;;;279.80;68.40;;;;;;;;;;5028529;28;20048;-68
2021/03/01 07:47:06;;;;;;;473.63;92.57;;;;;;;;;;5027204;28;20026;-67
2021/03/01 07:49:36;;;;;;;432.80;87.07;;;;;;;;;;5026661;28;20030;-68
2021/03/01 07:52:02;;;;;;;403.23;82.35;;;;;;;;;;5028939;28;20033;-67
2021/03/01 07:54:47;;;;;;;466.60;96.00;;;;;;;;;;5029540;28;20052;-68
2021/03/01 07:57:13;;;;;;;419.95;93.65;;;;;;;;;;5038511;28;20112;-67
2021/03/01 07:59:39;;;;;;;281.10;72.13;;;;;;;;;;5030485;28;20108;-67
2021/03/01 08:02:12;;;;;;;276.90;67.63;;;;;;;;;;5031606;28;20029;-67
2021/03/01 08:04:39;;;;;;;320.75;78.80;;;;;;;;;;5031007;28;20029;-68
2021/03/01 08:07:05;;;;;;;371.33;84.80;;;;;;;;;;5033275;28;20026;-67
2021/03/01 08:09:44;;;;;;;379.80;80.20;;;;;;;;;;5025722;28;20045;-68
2021/03/01 08:12:11;;;;;;;318.77;73.00;;;;;;;;;;5033521;28;20049;-67
2021/03/01 08:14:49;;;;;;;302.70;70.10;;;;;;;;;;5031710;28;20036;-67
2021/03/01 08:17:31;;;;;;;329.13;80.63;;;;;;;;;;5031391;28;20165;-67
2021/03/01 08:19:57;;;;;;;348.05;87.18;;;;;;;;;;5029516;28;20403;-67
2021/03/01 08:22:25;;;;;;;320.00;69.75;;;;;;;;;;5031119;28;20431;-68
2021/03/01 08:24:54;;;;;;;266.38;74.57;;;;;;;;;;5032473;28;20036;-67
2021/03/01 08:27:27;;;;;;;287.98;69.47;;;;;;;;;;5027013;28;20376;-67
2021/03/01 08:30:12;;;;;;;303.85;83.22;;;;;;;;;;5036077;28;20025;-67
2021/03/01 08:32:38;;;;;;;328.70;74.35;;;;;;;;;;5025517;28;20041;-66
2021/03/01 08:35:23;;;;;;;375.90;92.78;;;;;;;;;;5022016;28;20030;-67
2021/03/01 08:37:49;;;;;;;286.08;65.32;;;;;;;;;;5025320;28;20115;-66
2021/03/01 08:40:23;;;;;;;280.35;66.90;;;;;;;;;;5022941;28;20029;-66
2021/03/01 08:42:50;;;;;;;332.13;73.18;;;;;;;;;;5021465;28;20128;-67
2021/03/01 08:45:21;;;;;;;347.65;76.00;;;;;;;;;;5024037;28;20036;-67
2021/03/01 08:47:53;;;;;;;307.98;75.68;;;;;;;;;;5026340;28;20037;-67
2021/03/01 08:50:24;;;;;;;339.58;76.45;;;;;;;;;;5015152;28;20033;-67
2021/03/01 08:52:50;;;;;;;312.63;75.72;;;;;;;;;;5031721;28;20033;-67
2021/03/01 08:55:18;;;;;;;268.17;58.17;;;;;;;;;;5031793;28;20021;-67
2021/03/01 08:57:59;;;;;;;281.95;65.55;;;;;;;;;;5044539;28;20029;-68
2021/03/01 09:00:26;;;;;;;295.60;74.90;;;;;;;;;;5022505;28;20253;-67
2021/03/01 09:03:11;;;;;;;307.40;69.13;;;;;;;;;;5023512;28;20033;-66
2021/03/01 09:05:37;;;;;;;303.38;71.43;;;;;;;;;;5025145;28;20035;-66
2021/03/01 09:08:04;;;;;;;281.77;63.28;;;;;;;;;;5027277;28;20069;-67
2021/03/01 09:10:37;;;;;;;242.73;56.53;;;;;;;;;;5020140;28;20033;-66
2021/03/01 09:13:03;;;;;;;328.83;82.00;;;;;;;;;;5015829;28;20034;-67
2021/03/01 09:15:30;;;;;;;291.10;67.75;;;;;;;;;;5029534;28;20048;-67
2021/03/01 09:17:56;;;;;;;257.35;71.70;;;;;;;;;;5024195;28;20202;-67
2021/03/01 09:20:22;;;;;;;176.93;40.85;;;;;;;;;;5029164;28;20028;-67
2021/03/01 09:22:48;;;;;;;259.27;67.32;;;;;;;;;;5027310;28;20033;-67
2021/03/01 09:25:31;;;;;;;269.33;74.85;;;;;;;;;;5023175;28;20522;-67
2021/03/01 09:27:57;;;;;;;270.08;67.50;;;;;;;;;;5016907;28;20010;-67
2021/03/01 09:30:24;;;;;;;249.18;65.65;;;;;;;;;;5022820;28;20021;-67
2021/03/01 09:32:57;;;;;;;269.17;71.40;;;;;;;;;;5021790;28;20033;-67
2021/03/01 09:35:23;;;;;;;246.90;62.60;;;;;;;;;;5021346;28;20075;-67
2021/03/01 09:37:50;;;;;;;220.85;56.20;;;;;;;;;;5025278;28;20517;-67
2021/03/01 09:40:18;;;;;;;216.95;61.00;;;;;;;;;;5019577;28;20113;-67
2021/03/01 09:42:51;;;;;;;217.52;59.20;;;;;;;;;;5022754;28;20024;-66
2021/03/01 09:45:18;;;;;;;214.95;56.55;;;;;;;;;;5019500;28;20028;-67
2021/03/01 09:47:44;;;;;;;218.98;68.25;;;;;;;;;;5020963;28;20091;-68
2021/03/01 09:50:10;;;;;;;209.60;60.70;;;;;;;;;;5011070;28;20044;-68
2021/03/01 09:52:36;;;;;;;225.40;70.80;;;;;;;;;;5017858;28;20101;-68
2021/03/01 09:55:03;;;;;;;211.10;56.45;;;;;;;;;;5017818;28;20526;-68
2021/03/01 09:57:30;;;;;;;212.32;57.70;;;;;;;;;;5030218;28;20023;-68
2021/03/01 09:59:56;;;;;;;219.35;58.33;;;;;;;;;;5020965;28;20160;-68
2021/03/01 10:02:25;;;;;;;217.65;58.10;;;;;;;;;;5019824;28;20514;-68
2021/03/01 10:04:52;;;;;;;206.43;50.53;;;;;;;;;;5026756;28;20010;-68
2021/03/01 10:07:19;;;;;;;199.57;49.10;;;;;;;;;;5020021;28;20018;-68
2021/03/01 10:09:46;;;;;;;199.40;62.67;;;;;;;;;;5019897;28;20029;-69
2021/03/01 10:12:12;;;;;;;208.55;54.15;;;;;;;;;;5023349;28;20403;-68
2021/03/01 10:14:38;;;;;;;197.45;57.30;;;;;;;;;;5019601;28;20024;-68
2021/03/01 10:17:28;;;;;;;161.82;65.95;;;;;;;;;;5020405;28;20037;-68
2021/03/01 10:19:54;;;;;;;180.23;51.33;;;;;;;;;;5016297;28;20030;-68
2021/03/01 10:22:20;;;;;;;181.35;56.70;;;;;;;;;;5021757;28;20096;-68
2021/03/01 10:24:47;;;;;;;185.57;49.45;;;;;;;;;;5027585;28;20063;-68
2021/03/01 10:27:13;;;;;;;176.70;54.58;;;;;;;;;;5022303;28;20041;-68
2021/03/01 10:29:41;;;;;;;181.00;49.42;;;;;;;;;;5022769;28;20044;-68
2021/03/01 10:32:23;;;;;;;172.63;62.13;;;;;;;;;;5021201;28;20021;-68
2021/03/01 10:34:50;;;;;;;199.07;57.50;;;;;;;;;;5016798;28;20029;-68
2021/03/01 10:37:17;;;;;;;159.73;61.65;;;;;;;;;;5022487;28;20026;-68
2021/03/01 10:39:47;;;;;;;162.63;54.83;;;;;;;;;;5017899;28;20025;-68
2021/03/01 10:42:16;;;;;;;138.15;37.58;;;;;;;;;;5019108;28;20037;-68
2021/03/01 10:44:48;;;;;;;128.38;46.58;;;;;;;;;;5025624;28;20028;-68
2021/03/01 10:47:18;;;;;;;147.30;45.15;;;;;;;;;;5027271;28;20045;-68
2021/03/01 10:49:53;;;;;;;149.25;45.15;;;;;;;;;;5027821;28;20017;-68
2021/03/01 10:52:19;;;;;;;139.27;45.22;;;;;;;;;;5022998;28;20124;-69
2021/03/01 10:54:45;;;;;;;143.38;43.53;;;;;;;;;;5023456;28;20065;-68
2021/03/01 10:57:12;;;;;;;144.80;41.30;;;;;;;;;;5028111;28;20445;-69
2021/03/01 10:59:38;;;;;;;140.95;41.30;;;;;;;;;;5024171;28;20017;-68
2021/03/01 11:02:04;;;;;;;121.75;43.97;;;;;;;;;;5020354;28;20037;-69
2021/03/01 11:04:30;;;;;;;129.68;49.33;;;;;;;;;;5024544;28;20028;-69
2021/03/01 11:06:57;;;;;;;130.82;50.10;;;;;;;;;;5024543;28;20021;-69
2021/03/01 11:09:23;;;;;;;124.75;46.33;;;;;;;;;;5023033;28;20099;-69
2021/03/01 11:11:49;;;;;;;127.60;53.45;;;;;;;;;;5026917;28;20048;-69
2021/03/01 11:14:16;;;;;;;102.63;43.17;;;;;;;;;;5029635;28;20061;-69
2021/03/01 11:16:42;;;;;;;103.93;42.75;;;;;;;;;;5026789;28;20079;-69
2021/03/01 11:19:09;;;;;;;98.00;33.50;;;;;;;;;;5019978;28;20276;-69
2021/03/01 11:21:35;;;;;;;91.45;37.38;;;;;;;;;;5018123;28;20431;-69
2021/03/01 11:24:02;;;;;;;87.18;32.22;;;;;;;;;;5029214;28;20127;-69
2021/03/01 11:26:28;;;;;;;102.03;39.00;;;;;;;;;;5023165;28;20030;-69
2021/03/01 11:28:54;;;;;;;94.10;36.80;;;;;;;;;;5025831;28;20394;-69
2021/03/01 11:31:21;;;;;;;90.10;42.08;;;;;;;;;;5022844;28;20124;-70
2021/03/01 11:33:47;;;;;;;83.25;32.08;;;;;;;;;;5028531;28;20026;-69
2021/03/01 11:36:13;;;;;;;81.70;29.23;;;;;;;;;;5032349;28;20064;-69
2021/03/01 11:38:39;;;;;;;92.13;36.78;;;;;;;;;;5029442;28;20018;-69
2021/03/01 11:41:05;;;;;;;86.82;34.05;;;;;;;;;;5027539;28;20034;-69
2021/03/01 11:43:32;;;;;;;89.32;35.60;;;;;;;;;;5037593;28;20024;-69
2021/03/01 11:45:58;;;;;;;57.42;20.95;;;;;;;;;;5028203;28;20399;-69
2021/03/01 11:48:24;;;;;;;81.68;27.33;;;;;;;;;;5025080;28;20033;-69
2021/03/01 11:50:51;;;;;;;76.32;32.45;;;;;;;;;;5023206;28;20081;-69
2021/03/01 11:53:17;;;;;;;79.90;34.70;;;;;;;;;;5027327;28;20046;-69
2021/03/01 11:55:44;;;;;;;56.15;18.90;;;;;;;;;;5027762;28;20044;-69
2021/03/01 11:58:11;;;;;;;87.05;38.63;;;;;;;;;;5019740;28;20057;-69
2021/03/01 12:00:40;;;;;;;81.97;42.25;;;;;;;;;;5017968;28;20029;-70
2021/03/01 12:03:06;;;;;;;78.20;31.95;;;;;;;;;;5027072;28;20037;-70
2021/03/01 12:05:33;;;;;;;78.50;31.42;;;;;;;;;;5046725;28;20094;-69
2021/03/01 12:07:59;;;;;;;86.25;33.95;;;;;;;;;;5026940;28;20041;-70
2021/03/01 12:10:25;;;;;;;79.78;31.92;;;;;;;;;;5039041;28;20116;-69
2021/03/01 12:12:51;;;;;;;69.18;28.48;;;;;;;;;;5026523;28;20096;-69
2021/03/01 12:15:17;;;;;;;75.00;34.53;;;;;;;;;;5023016;28;20032;-69
2021/03/01 12:17:43;;;;;;;69.85;31.65;;;;;;;;;;5022658;28;20607;-70
2021/03/01 12:20:09;;;;;;;75.10;32.45;;;;;;;;;;5023448;28;20049;-70
2021/03/01 12:22:36;;;;;;;68.68;31.48;;;;;;;;;;5029603;28;20036;-69
2021/03/01 12:25:03;;;;;;;63.28;31.13;;;;;;;;;;5023599;28;20017;-70
2021/03/01 12:27:29;;;;;;;70.25;29.60;;;;;;;;;;5027708;28;20025;-69
2021/03/01 12:29:55;;;;;;;64.60;32.78;;;;;;;;;;5024176;28;20030;-70
2021/03/01 12:32:21;;;;;;;64.40;28.92;;;;;;;;;;5024915;28;20017;-69
2021/03/01 12:34:47;;;;;;;67.18;30.10;;;;;;;;;;5023910;28;20030;-69
2021/03/01 12:37:14;;;;;;;70.80;39.17;;;;;;;;;;5024256;28;20118;-70
2021/03/01 12:39:40;;;;;;;72.63;32.45;;;;;;;;;;5019233;28;20550;-69
2021/03/01 12:42:06;;;;;;;63.97;30.05;;;;;;;;;;5022226;28;20026;-69
2021/03/01 12:44:33;;;;;;;64.13;29.85;;;;;;;;;;5024324;28;20512;-69
2021/03/01 12:46:59;;;;;;;71.68;36.33;;;;;;;;;;5022748;28;20044;-70
2021/03/01 12:49:26;;;;;;;68.68;31.27;;;;;;;;;;5019078;28;20480;-70
2021/03/01 12:51:52;;;;;;;65.85;33.22;;;;;;;;;;5021665;28;20034;-70
2021/03/01 12:54:18;;;;;;;70.47;37.45;;;;;;;;;;5030379;28;20031;-69
2021/03/01 12:56:44;;;;;;;64.65;29.52;;;;;;;;;;5029194;28;20034;-70
2021/03/01 12:59:11;;;;;;;65.78;27.65;;;;;;;;;;5025075;28;20052;-69
2021/03/01 13:01:37;;;;;;;56.97;26.63;;;;;;;;;;5025812;28;20030;-70
2021/03/01 13:04:03;;;;;;;57.92;28.60;;;;;;;;;;5029254;28;20036;-69
2021/03/01 13:06:29;;;;;;;63.88;32.85;;;;;;;;;;5028066;28;20026;-69
2021/03/01 13:08:55;;;;;;;62.40;33.20;;;;;;;;;;5020424;28;20097;-70
2021/03/01 13:11:21;;;;;;;61.35;30.38;;;;;;;;;;5024675;28;20030;-69
2021/03/01 13:13:47;;;;;;;61.97;30.17;;;;;;;;;;5026953;28;20033;-70
2021/03/01 13:16:13;;;;;;;62.15;30.15;;;;;;;;;;5028626;28;20051;-69
2021/03/01 13:18:40;;;;;;;63.30;36.30;;;;;;;;;;5025104;28;20022;-69
2021/03/01 13:21:06;;;;;;;58.28;28.75;;;;;;;;;;5024652;28;20090;-69
2021/03/01 13:23:32;;;;;;;58.08;26.80;;;;;;;;;;5029169;28;20081;-69
2021/03/01 13:25:58;;;;;;;51.70;28.55;;;;;;;;;;5022129;28;20056;-69
2021/03/01 13:28:25;;;;;;;55.45;29.52;;;;;;;;;;5022674;28;20080;-71
2021/03/01 13:30:51;;;;;;;52.08;29.98;;;;;;;;;;5022158;28;20030;-69
2021/03/01 13:33:18;;;;;;;57.10;31.27;;;;;;;;;;5023698;28;20026;-70
2021/03/01 13:35:44;;;;;;;56.35;32.10;;;;;;;;;;5019126;28;20248;-70
2021/03/01 13:38:10;;;;;;;56.25;33.47;;;;;;;;;;5021824;28;20029;-70
2021/03/01 13:40:36;;;;;;;60.40;34.22;;;;;;;;;;5023129;28;20037;-69
2021/03/01 13:43:03;;;;;;;63.38;32.47;;;;;;;;;;5028417;28;20524;-70
2021/03/01 13:45:29;;;;;;;62.65;34.40;;;;;;;;;;5024681;28;20041;-70
2021/03/01 13:47:55;;;;;;;59.08;30.08;;;;;;;;;;5023355;28;20030;-69
2021/03/01 13:50:21;;;;;;;60.25;34.50;;;;;;;;;;5021136;28;20022;-70
2021/03/01 13:52:48;;;;;;;57.50;29.13;;;;;;;;;;5022386;28;20025;-69
2021/03/01 13:55:14;;;;;;;64.50;33.38;;;;;;;;;;5026501;28;20018;-69
2021/03/01 13:57:40;;;;;;;59.05;30.33;;;;;;;;;;5018250;28;20492;-69
2021/03/01 14:00:08;;;;;;;62.20;32.42;;;;;;;;;;5019129;28;20468;-69
2021/03/01 14:02:34;;;;;;;54.42;32.75;;;;;;;;;;5022529;28;20541;-70
2021/03/01 14:05:00;;;;;;;53.63;26.58;;;;;;;;;;5017623;28;20038;-69
2021/03/01 14:07:26;;;;;;;50.50;30.50;;;;;;;;;;5023051;28;20033;-71
2021/03/01 14:09:52;;;;;;;54.45;30.13;;;;;;;;;;5020664;28;20064;-69
2021/03/01 14:12:18;;;;;;;55.45;30.45;;;;;;;;;;5018193;28;20037;-70
2021/03/01 14:14:44;;;;;;;55.15;26.38;;;;;;;;;;5019342;28;20018;-69